createdAt,value
2018-07-23T00:01:46.959Z,8.35
2018-07-23T00:04:15.830Z,10.82
2018-07-23T00:06:44.713Z,11.05
2018-07-23T00:09:13.570Z,10.03
2018-07-23T00:11:42.508Z,12.58
2018-07-23T00:14:11.372Z,10.58
2018-07-23T00:16:40.252Z,11.90
2018-07-23T00:19:09.152Z,11.80
2018-07-23T00:21:38.016Z,11.18
2018-07-23T00:24:06.884Z,8.55
2018-07-23T00:26:35.956Z,9.13
2018-07-23T00:29:04.807Z,13.40
2018-07-23T00:31:33.700Z,11.68
2018-07-23T00:34:02.576Z,10.98
2018-07-23T00:36:31.531Z,12.53
2018-07-23T00:39:00.376Z,11.57
2018-07-23T00:41:29.255Z,12.35
2018-07-23T00:43:58.112Z,11.10
2018-07-23T00:46:27.025Z,8.40
2018-07-23T00:48:55.910Z,8.88
2018-07-23T00:51:24.834Z,13.47
2018-07-23T00:53:53.683Z,10.50
2018-07-23T00:56:22.522Z,12.93
2018-07-23T00:58:51.398Z,9.73
2018-07-23T01:01:20.298Z,10.90
2018-07-23T01:03:49.157Z,7.55
2018-07-23T01:06:18.041Z,8.80
2018-07-23T01:08:46.964Z,12.80
2018-07-23T01:11:15.831Z,10.45
2018-07-23T01:13:44.868Z,8.80
2018-07-23T01:16:13.747Z,7.83
2018-07-23T01:18:42.601Z,8.58
2018-07-23T01:21:11.494Z,10.90
2018-07-23T01:23:40.363Z,8.63
2018-07-23T01:26:09.233Z,9.43
2018-07-23T01:28:38.127Z,14.60
2018-07-23T01:31:07.272Z,11.43
2018-07-23T01:33:36.146Z,10.55
2018-07-23T01:36:05.047Z,13.65
2018-07-23T01:38:34.552Z,8.65
2018-07-23T01:41:03.412Z,10.05
2018-07-23T01:43:32.344Z,10.58
2018-07-23T01:46:01.203Z,11.55
2018-07-23T01:48:30.084Z,9.73
2018-07-23T01:50:58.938Z,13.37
2018-07-23T01:53:27.832Z,12.45
2018-07-23T01:55:56.769Z,10.78
2018-07-23T01:58:25.637Z,9.15
2018-07-23T02:00:54.575Z,10.57
2018-07-23T02:03:23.531Z,10.63
2018-07-23T02:05:52.428Z,10.43
2018-07-23T02:08:21.271Z,10.60
2018-07-23T02:10:50.148Z,10.18
2018-07-23T02:13:19.003Z,10.95
2018-07-23T02:15:47.886Z,9.25
2018-07-23T02:18:16.813Z,11.53
2018-07-23T02:20:45.858Z,10.53
2018-07-23T02:23:14.740Z,8.55
2018-07-23T02:25:43.628Z,9.25
2018-07-23T02:28:12.474Z,11.80
2018-07-23T02:30:41.322Z,13.48
2018-07-23T02:33:10.226Z,11.10
2018-07-23T02:35:39.113Z,8.95
2018-07-23T02:38:08.501Z,8.90
2018-07-23T02:40:37.405Z,10.10
2018-07-23T02:43:06.395Z,11.80
2018-07-23T02:45:35.264Z,11.05
2018-07-23T02:48:04.196Z,10.47
2018-07-23T02:50:33.099Z,10.43
2018-07-23T02:53:01.979Z,9.65
2018-07-23T02:55:30.869Z,10.55
2018-07-23T02:57:59.866Z,10.83
2018-07-23T03:00:28.719Z,10.67
2018-07-23T03:02:57.563Z,9.03
2018-07-23T03:05:26.422Z,11.43
2018-07-23T03:07:55.260Z,9.40
2018-07-23T03:10:24.125Z,7.80
2018-07-23T03:12:52.973Z,8.45
2018-07-23T03:15:21.880Z,12.73
2018-07-23T03:17:50.742Z,13.43
2018-07-23T03:20:19.607Z,9.90
2018-07-23T03:23:18.908Z,8.20
2018-07-23T03:25:47.790Z,10.87
2018-07-23T03:28:16.690Z,10.28
2018-07-23T03:30:45.571Z,10.68
2018-07-23T03:33:14.468Z,11.27
2018-07-23T03:35:43.311Z,7.17
2018-07-23T03:38:12.201Z,11.35
2018-07-23T03:40:41.075Z,9.60
2018-07-23T03:43:10.188Z,9.93
2018-07-23T03:45:39.096Z,7.73
2018-07-23T03:48:08.134Z,8.87
2018-07-23T03:50:37.004Z,8.38
2018-07-23T03:53:06.131Z,10.93
2018-07-23T03:55:34.994Z,6.97
2018-07-23T03:58:04.034Z,8.90
2018-07-23T04:00:32.911Z,8.18
2018-07-23T04:03:01.783Z,8.50
2018-07-23T04:05:30.641Z,9.67
2018-07-23T04:07:59.513Z,10.38
2018-07-23T04:10:28.375Z,8.73
2018-07-23T04:12:57.241Z,9.20
2018-07-23T04:15:26.116Z,12.43
2018-07-23T04:18:00.390Z,9.10
2018-07-23T04:20:29.494Z,8.50
2018-07-23T04:22:58.600Z,10.03
2018-07-23T04:25:27.805Z,7.87
2018-07-23T04:27:56.679Z,8.55
2018-07-23T04:30:25.568Z,7.80
2018-07-23T04:32:54.440Z,9.37
2018-07-23T04:35:23.323Z,9.48
2018-07-23T04:37:52.247Z,7.20
2018-07-23T04:40:21.109Z,8.50
2018-07-23T04:42:50.001Z,12.43
2018-07-23T04:45:18.870Z,10.50
2018-07-23T04:47:48.016Z,8.85
2018-07-23T04:50:16.908Z,6.12
2018-07-23T04:52:45.779Z,7.50
2018-07-23T04:55:14.691Z,8.07
2018-07-23T04:57:43.619Z,8.43
2018-07-23T05:00:12.490Z,8.75
2018-07-23T05:02:41.452Z,7.70
2018-07-23T05:05:10.317Z,8.93
2018-07-23T05:07:39.175Z,6.35
2018-07-23T05:10:08.090Z,8.43
2018-07-23T05:12:36.970Z,9.40
2018-07-23T05:15:05.865Z,10.88
2018-07-23T05:17:35.012Z,6.25
2018-07-23T05:20:03.957Z,7.62
2018-07-23T05:22:32.795Z,8.60
2018-07-23T05:25:01.640Z,8.43
2018-07-23T05:27:30.620Z,8.33
2018-07-23T05:29:59.499Z,5.53
2018-07-23T05:32:28.354Z,6.50
2018-07-23T05:34:57.315Z,14.03
2018-07-23T05:37:26.208Z,10.72
2018-07-23T05:39:55.075Z,8.68
2018-07-23T05:42:23.962Z,12.25
2018-07-23T05:44:52.851Z,11.73
2018-07-23T05:47:21.710Z,13.15
2018-07-23T05:49:50.567Z,9.00
2018-07-23T05:52:19.462Z,7.60
2018-07-23T05:54:48.362Z,7.92
2018-07-23T05:57:17.340Z,8.40
2018-07-23T05:59:46.189Z,9.90
2018-07-23T06:02:15.103Z,8.45
2018-07-23T06:04:43.988Z,10.98
2018-07-23T06:07:12.844Z,13.10
2018-07-23T06:09:41.741Z,7.97
2018-07-23T06:12:11.064Z,8.05
2018-07-23T06:14:39.974Z,7.95
2018-07-23T06:17:08.870Z,7.60
2018-07-23T06:19:37.780Z,7.58
2018-07-23T06:22:06.700Z,10.93
2018-07-23T06:24:35.579Z,8.85
2018-07-23T06:27:04.503Z,10.15
2018-07-23T06:29:33.366Z,11.53
2018-07-23T06:32:02.259Z,8.95
2018-07-23T06:34:31.260Z,12.47
2018-07-23T06:37:00.167Z,8.30
2018-07-23T06:39:29.072Z,8.05
2018-07-23T06:41:57.920Z,10.75
2018-07-23T06:44:29.033Z,8.43
2018-07-23T06:46:57.984Z,8.73
2018-07-23T06:49:26.915Z,7.60
2018-07-23T06:51:55.795Z,6.17
2018-07-23T06:54:24.686Z,8.60
2018-07-23T06:56:53.578Z,7.08
2018-07-23T06:59:26.527Z,8.65
2018-07-23T07:01:55.445Z,7.67
2018-07-23T07:04:24.683Z,10.18
2018-07-23T07:06:53.544Z,8.25
2018-07-23T07:09:22.451Z,12.00
2018-07-23T07:11:51.610Z,9.68
2018-07-23T07:14:20.495Z,12.47
2018-07-23T07:16:50.144Z,10.32
2018-07-23T07:19:19.768Z,12.47
2018-07-23T07:21:49.375Z,10.65
2018-07-23T07:24:18.465Z,7.33
2018-07-23T07:26:47.419Z,10.37
2018-07-23T07:29:16.662Z,11.63
2018-07-23T07:31:46.269Z,9.53
2018-07-23T07:34:15.878Z,12.13
2018-07-23T07:36:45.490Z,13.30
2018-07-23T07:39:14.580Z,16.40
2018-07-23T07:41:43.758Z,17.87
2018-07-23T07:44:13.019Z,12.50
2018-07-23T07:46:42.213Z,12.87
2018-07-23T07:49:11.988Z,9.47
2018-07-23T07:51:41.290Z,10.20
2018-07-23T07:54:10.896Z,11.40
2018-07-23T07:56:40.196Z,9.33
2018-07-23T07:59:09.519Z,9.40
2018-07-23T08:01:39.113Z,11.63
2018-07-23T08:04:09.376Z,8.07
2018-07-23T08:06:38.271Z,8.13
2018-07-23T08:09:08.236Z,7.57
2018-07-23T08:11:40.228Z,7.20
2018-07-23T08:14:09.108Z,7.73
2018-07-23T08:16:38.064Z,4.20
2018-07-23T08:19:07.009Z,5.47
2018-07-23T08:21:36.083Z,3.07
2018-07-23T08:24:05.063Z,3.37
2018-07-23T08:26:33.951Z,3.47
2018-07-23T08:29:03.156Z,4.23
2018-07-23T08:31:32.104Z,4.03
2018-07-23T08:34:01.096Z,2.53
2018-07-23T08:36:29.952Z,4.87
2018-07-23T08:38:59.219Z,5.43
2018-07-23T08:41:28.151Z,7.43
2018-07-23T08:43:57.135Z,2.22
2018-07-23T08:46:26.005Z,3.90
2018-07-23T08:48:54.912Z,2.43
2018-07-23T08:51:23.884Z,3.70
2018-07-23T08:53:52.762Z,3.63
2018-07-23T08:56:21.715Z,3.30
2018-07-23T08:58:50.640Z,3.10
2018-07-23T09:01:19.748Z,4.20
2018-07-23T09:03:48.615Z,5.07
2018-07-23T09:06:17.783Z,4.77
2018-07-23T09:08:47.522Z,8.63
2018-07-23T09:11:16.754Z,6.43
2018-07-23T09:13:48.615Z,9.00
2018-07-23T09:16:18.430Z,8.40
2018-07-23T09:18:47.809Z,11.37
2018-07-23T09:21:17.030Z,9.97
2018-07-23T09:23:46.813Z,8.57
2018-07-23T09:26:15.948Z,7.77
2018-07-23T09:28:44.925Z,12.00
2018-07-23T09:31:14.262Z,8.37
2018-07-23T09:33:43.532Z,10.20
2018-07-23T09:36:12.670Z,7.67
2018-07-23T09:38:41.552Z,9.03
2018-07-23T09:41:10.440Z,7.33
2018-07-23T09:43:39.339Z,10.73
2018-07-23T09:46:08.511Z,8.90
2018-07-23T09:48:37.519Z,9.67
2018-07-23T09:51:07.102Z,11.53
2018-07-23T09:53:36.093Z,8.40
2018-07-23T09:56:05.402Z,6.20
2018-07-23T09:58:34.805Z,4.47
2018-07-23T10:01:08.883Z,2.70
2018-07-23T10:03:38.136Z,2.90
2018-07-23T10:06:07.578Z,3.90
2018-07-23T10:08:36.476Z,3.30
2018-07-23T10:11:05.369Z,3.73
2018-07-23T10:13:34.248Z,1.97
2018-07-23T10:16:03.142Z,3.20
2018-07-23T10:18:32.474Z,3.50
2018-07-23T10:21:01.760Z,2.17
2018-07-23T10:23:30.653Z,3.27
2018-07-23T10:25:59.542Z,3.30
2018-07-23T10:28:30.120Z,5.70
2018-07-23T10:30:59.328Z,3.13
2018-07-23T10:33:30.146Z,4.30
2018-07-23T10:35:59.483Z,3.37
2018-07-23T10:38:28.434Z,3.10
2018-07-23T10:40:57.355Z,4.20
2018-07-23T10:43:26.247Z,4.80
2018-07-23T10:45:55.709Z,3.87
2018-07-23T10:48:24.622Z,5.05
2018-07-23T10:50:53.658Z,6.93
2018-07-23T10:53:22.543Z,3.93
2018-07-23T10:55:51.532Z,6.60
2018-07-23T10:58:20.414Z,7.43
2018-07-23T11:00:49.313Z,5.87
2018-07-23T11:03:18.231Z,8.20
2018-07-23T11:05:47.106Z,5.03
2018-07-23T11:08:16.453Z,5.50
2018-07-23T11:10:45.439Z,3.73
2018-07-23T11:13:14.391Z,4.80
2018-07-23T11:15:43.372Z,4.87
2018-07-23T11:18:12.259Z,4.37
2018-07-23T11:20:41.195Z,3.37
2018-07-23T11:23:10.294Z,3.50
2018-07-23T11:25:40.183Z,5.13
2018-07-23T11:28:08.241Z,4.30
2018-07-23T11:30:37.127Z,3.97
2018-07-23T11:33:06.267Z,2.83
2018-07-23T11:35:35.164Z,3.13
2018-07-23T11:38:04.069Z,4.97
2018-07-23T11:40:32.936Z,3.27
2018-07-23T11:43:01.843Z,4.03
2018-07-23T11:45:30.681Z,4.17
2018-07-23T11:47:59.616Z,3.83
2018-07-23T11:50:28.531Z,4.53
2018-07-23T11:52:57.454Z,3.73
2018-07-23T11:55:26.334Z,2.30
2018-07-23T11:57:55.203Z,4.03
2018-07-23T12:00:24.125Z,2.93
2018-07-23T12:02:53.069Z,4.65
2018-07-23T12:05:22.000Z,3.77
2018-07-23T12:07:50.843Z,3.72
2018-07-23T12:10:19.735Z,5.45
2018-07-23T12:12:48.687Z,3.90
2018-07-23T12:15:17.684Z,4.57
2018-07-23T12:17:46.619Z,3.42
2018-07-23T12:20:16.016Z,2.55
2018-07-23T12:22:45.210Z,5.97
2018-07-23T12:25:14.083Z,2.33
2018-07-23T12:27:42.955Z,4.78
2018-07-23T12:30:11.848Z,2.47
2018-07-23T12:32:40.820Z,3.17
2018-07-23T12:35:10.907Z,2.53
2018-07-23T12:37:41.391Z,9.08
2018-07-23T12:40:10.907Z,4.78
2018-07-23T12:42:42.439Z,4.87
2018-07-23T12:45:11.985Z,4.83
2018-07-23T12:47:41.532Z,2.85
2018-07-23T12:50:11.110Z,5.90
2018-07-23T12:52:40.656Z,6.45
2018-07-23T12:55:11.012Z,5.33
2018-07-23T12:57:43.931Z,5.95
2018-07-23T13:00:13.741Z,5.80
2018-07-23T13:02:43.846Z,6.08
2018-07-23T13:05:14.180Z,10.05
2018-07-23T13:07:43.580Z,8.05
2018-07-23T13:10:13.284Z,7.03
2018-07-23T13:12:42.693Z,9.30
2018-07-23T13:15:11.848Z,6.90
2018-07-23T13:17:49.058Z,6.87
2018-07-23T13:20:19.655Z,9.88
2018-07-23T13:22:50.355Z,4.45
2018-07-23T13:25:20.074Z,6.25
2018-07-23T13:27:49.595Z,6.17
2018-07-23T13:30:19.495Z,5.67
2018-07-23T13:32:48.669Z,5.60
2018-07-23T13:35:17.964Z,5.67
2018-07-23T13:37:47.114Z,7.72
2018-07-23T13:40:16.906Z,6.50
2018-07-23T13:42:46.153Z,6.90
2018-07-23T13:45:15.507Z,6.78
2018-07-23T13:47:44.527Z,6.30
2018-07-23T13:50:13.895Z,6.35
2018-07-23T13:55:22.196Z,4.42
2018-07-23T13:57:51.863Z,5.37
2018-07-23T14:00:22.073Z,6.28
2018-07-23T14:02:51.324Z,4.25
2018-07-23T14:05:22.858Z,4.62
2018-07-23T14:07:52.930Z,3.47
2018-07-23T14:10:22.605Z,4.47
2018-07-23T14:12:54.362Z,6.12
2018-07-23T14:15:24.279Z,5.12
2018-07-23T14:17:53.731Z,3.80
2018-07-23T14:20:23.262Z,5.12
2018-07-23T14:22:52.793Z,3.52
2018-07-23T14:25:22.708Z,3.60
2018-07-23T14:27:52.868Z,3.67
2018-07-23T14:30:22.862Z,4.05
2018-07-23T14:32:52.597Z,6.87
2018-07-23T14:35:22.193Z,4.75
2018-07-23T14:37:52.799Z,3.17
2018-07-23T14:40:27.366Z,4.08
2018-07-23T14:42:57.028Z,3.27
2018-07-23T14:45:27.565Z,4.83
2018-07-23T14:47:58.020Z,3.80
2018-07-23T14:50:30.995Z,4.15
2018-07-23T14:53:01.474Z,3.22
2018-07-23T14:55:31.908Z,2.70
2018-07-23T14:58:01.868Z,3.62
2018-07-23T15:00:31.535Z,4.58
2018-07-23T15:03:01.689Z,4.15
2018-07-23T15:05:32.337Z,4.17
2018-07-23T15:08:02.186Z,3.50
2018-07-23T15:10:34.505Z,2.95
2018-07-23T15:13:05.268Z,3.95
2018-07-23T15:15:34.976Z,4.05
2018-07-23T15:18:05.291Z,4.60
2018-07-23T15:20:35.900Z,2.85
2018-07-23T15:23:05.653Z,2.70
2018-07-23T15:25:36.567Z,2.70
2018-07-23T15:28:06.447Z,4.08
2018-07-23T15:30:37.099Z,4.37
2018-07-23T15:33:06.832Z,3.77
2018-07-23T15:35:37.118Z,4.20
2018-07-23T15:38:07.017Z,4.72
2018-07-23T15:40:36.608Z,6.25
2018-07-23T15:43:06.463Z,2.98
2018-07-23T15:45:36.221Z,3.35
2018-07-23T15:48:06.053Z,4.30
2018-07-23T15:50:36.119Z,3.12
2018-07-23T15:53:06.211Z,4.20
2018-07-23T15:55:39.020Z,5.35
2018-07-23T15:58:09.101Z,3.80
2018-07-23T16:00:39.315Z,3.52
2018-07-23T16:03:08.996Z,3.98
2018-07-23T16:05:38.408Z,4.53
2018-07-23T16:08:08.972Z,3.45
2018-07-23T16:10:39.008Z,2.72
2018-07-23T16:13:08.869Z,4.03
2018-07-23T16:15:39.785Z,3.40
2018-07-23T16:18:10.252Z,4.30
2018-07-23T16:20:40.628Z,5.75
2018-07-23T16:23:10.376Z,3.87
2018-07-23T16:25:40.260Z,3.63
2018-07-23T16:28:10.236Z,3.85
2018-07-23T16:30:40.276Z,4.70
2018-07-23T16:33:12.011Z,4.27
2018-07-23T16:35:44.788Z,5.28
2018-07-23T16:38:15.206Z,3.80
2018-07-23T16:40:46.608Z,3.95
2018-07-23T16:43:16.496Z,4.10
2018-07-23T16:45:46.404Z,3.50
2018-07-23T16:48:16.210Z,3.70
2018-07-23T16:50:46.200Z,4.53
2018-07-23T16:53:15.809Z,3.70
2018-07-23T16:55:45.673Z,3.80
2018-07-23T16:58:17.409Z,4.33
2018-07-23T17:00:47.791Z,2.77
2018-07-23T17:03:21.785Z,3.47
2018-07-23T17:05:57.095Z,5.27
2018-07-23T17:08:28.918Z,3.40
2018-07-23T17:10:58.519Z,4.43
2018-07-23T17:13:28.350Z,3.40
2018-07-23T17:15:57.944Z,4.65
2018-07-23T17:18:27.841Z,4.33
2018-07-23T17:20:57.424Z,4.65
2018-07-23T17:23:27.704Z,6.03
2018-07-23T17:25:57.619Z,5.17
2018-07-23T17:28:27.657Z,3.10
2018-07-23T17:30:57.900Z,3.27
2018-07-23T17:33:27.624Z,3.80
2018-07-23T17:35:57.585Z,3.70
2018-07-23T17:38:28.823Z,3.90
2018-07-23T17:40:58.596Z,3.50
2018-07-23T17:43:28.549Z,5.00
2018-07-23T17:45:58.980Z,3.35
2018-07-23T17:48:28.701Z,4.17
2018-07-23T17:50:58.565Z,5.85
2018-07-23T17:53:28.482Z,4.37
2018-07-23T17:55:58.067Z,8.30
2018-07-23T17:58:28.054Z,3.83
2018-07-23T18:00:58.006Z,3.47
2018-07-23T18:03:27.527Z,3.40
2018-07-23T18:05:57.781Z,7.70
2018-07-23T18:08:27.713Z,3.98
2018-07-23T18:10:58.073Z,4.97
2018-07-23T18:13:28.151Z,11.00
2018-07-23T18:15:58.206Z,19.33
2018-07-23T18:18:29.051Z,38.60
2018-07-23T18:20:59.103Z,26.60
2018-07-23T18:23:29.049Z,22.13
2018-07-23T18:25:58.952Z,14.00
2018-07-23T18:28:28.542Z,7.77
2018-07-23T18:30:58.842Z,11.13
2018-07-23T18:33:29.373Z,6.33
2018-07-23T18:35:59.044Z,6.23
2018-07-23T18:38:29.880Z,6.13
2018-07-23T18:40:59.615Z,8.30
2018-07-23T18:43:29.929Z,17.57
2018-07-23T18:45:59.835Z,7.03
2018-07-23T18:49:44.957Z,6.40
2018-07-23T18:52:15.594Z,5.87
2018-07-23T18:54:57.809Z,5.60
2018-07-23T18:57:32.073Z,5.67
2018-07-23T19:00:09.093Z,6.63
2018-07-23T19:02:40.728Z,5.50
2018-07-23T19:05:11.303Z,5.33
2018-07-23T19:07:45.289Z,6.73
2018-07-23T19:10:15.785Z,7.70
2018-07-23T19:12:47.219Z,4.40
2018-07-23T19:15:19.981Z,4.20
2018-07-23T19:17:54.419Z,6.53
2018-07-23T19:20:24.680Z,5.90
2018-07-23T19:22:55.197Z,5.07
2018-07-23T19:25:40.753Z,5.93
2018-07-23T19:28:11.163Z,4.33
2018-07-23T19:30:41.208Z,4.97
2018-07-23T19:33:11.433Z,5.83
2018-07-23T19:35:41.686Z,4.47
2018-07-23T19:38:12.278Z,6.27
2018-07-23T19:40:42.553Z,5.93
2018-07-23T19:43:12.457Z,7.13
2018-07-23T19:45:43.072Z,4.97
2018-07-23T19:48:12.716Z,5.60
2018-07-23T19:50:44.662Z,5.13
2018-07-23T19:53:14.674Z,8.03
2018-07-23T19:55:48.683Z,5.47
2018-07-23T19:58:24.804Z,7.83
2018-07-23T20:00:59.288Z,6.30
2018-07-23T20:03:31.989Z,5.63
2018-07-23T20:06:02.882Z,7.53
2018-07-23T20:08:32.579Z,7.07
2018-07-23T20:11:03.593Z,8.50
2018-07-23T20:13:33.604Z,10.77
2018-07-23T20:16:06.760Z,7.47
2018-07-23T20:18:36.953Z,6.77
2018-07-23T20:21:07.354Z,6.63
2018-07-23T20:23:37.379Z,6.83
2018-07-23T20:26:07.558Z,7.90
2018-07-23T20:28:38.208Z,5.73
2018-07-23T20:31:11.655Z,5.70
2018-07-23T20:33:41.564Z,4.30
2018-07-23T20:36:11.572Z,5.40
2018-07-23T20:38:41.820Z,4.53
2018-07-23T20:41:12.322Z,5.63
2018-07-23T20:43:43.376Z,5.93
2018-07-23T20:46:14.321Z,4.43
2018-07-23T20:48:44.448Z,4.47
2018-07-23T20:51:18.291Z,8.53
2018-07-23T20:53:49.440Z,5.87
2018-07-23T20:56:19.359Z,6.47
2018-07-23T20:58:49.672Z,5.87
2018-07-23T21:01:19.485Z,6.20
2018-07-23T21:03:50.104Z,5.43
2018-07-23T21:06:19.176Z,6.70
2018-07-23T21:08:49.225Z,5.83
2018-07-23T21:11:18.791Z,7.10
2018-07-23T21:13:49.063Z,6.50
2018-07-23T21:16:19.952Z,6.27
2018-07-23T21:18:50.436Z,5.40
2018-07-23T21:21:25.669Z,5.60
2018-07-23T21:23:56.141Z,6.83
2018-07-23T21:26:26.326Z,5.43
2018-07-23T21:28:55.900Z,4.80
2018-07-23T21:31:25.460Z,4.93
2018-07-23T21:33:55.841Z,7.57
2018-07-23T21:36:27.014Z,8.10
2018-07-23T21:38:56.596Z,4.87
2018-07-23T21:41:27.525Z,5.23
2018-07-23T21:43:57.212Z,5.17
2018-07-23T21:46:27.920Z,4.10
2018-07-23T21:48:58.757Z,5.57
2018-07-23T21:51:29.250Z,4.33
2018-07-23T21:53:59.056Z,4.90
2018-07-23T21:56:29.771Z,5.20
2018-07-23T21:58:59.609Z,5.30
2018-07-23T22:01:29.461Z,5.80
2018-07-23T22:03:59.596Z,6.03
2018-07-23T22:06:29.486Z,5.97
2018-07-23T22:09:00.140Z,6.23
2018-07-23T22:11:29.968Z,8.17
2018-07-23T22:14:00.477Z,7.77
2018-07-23T22:16:31.012Z,8.33
2018-07-23T22:19:01.186Z,6.63
2018-07-23T22:21:30.868Z,7.17
2018-07-23T22:24:01.170Z,6.47
2018-07-23T22:26:31.455Z,5.53
2018-07-23T22:29:01.347Z,7.27
2018-07-23T22:31:33.436Z,6.17
2018-07-23T22:34:03.159Z,5.17
2018-07-23T22:36:33.281Z,6.03
2018-07-23T22:39:03.441Z,6.63
2018-07-23T22:41:32.881Z,5.77
2018-07-23T22:44:03.243Z,7.93
2018-07-23T22:46:32.748Z,5.83
2018-07-23T22:49:02.349Z,6.13
2018-07-23T22:51:32.013Z,5.77
2018-07-23T22:54:02.205Z,6.50
2018-07-23T22:56:31.896Z,5.07
2018-07-23T22:59:01.753Z,5.10
2018-07-23T23:01:31.685Z,4.80
2018-07-23T23:04:01.513Z,4.93
2018-07-23T23:06:31.112Z,5.10
2018-07-23T23:09:01.808Z,5.10
2018-07-23T23:11:31.458Z,5.77
2018-07-23T23:14:01.551Z,5.37
2018-07-23T23:16:31.742Z,5.33
2018-07-23T23:19:02.372Z,6.57
2018-07-23T23:21:32.175Z,6.57
2018-07-23T23:24:01.791Z,9.37
2018-07-23T23:26:32.108Z,6.23
2018-07-23T23:29:02.048Z,6.97
2018-07-23T23:31:31.390Z,5.83
2018-07-23T23:34:01.940Z,4.87
2018-07-23T23:36:32.387Z,6.33
2018-07-23T23:39:02.701Z,6.80
2018-07-23T23:41:32.437Z,5.57
2018-07-23T23:44:02.992Z,7.60
2018-07-23T23:46:33.577Z,7.37
2018-07-23T23:49:03.801Z,6.13
2018-07-23T23:51:34.091Z,6.10
2018-07-23T23:54:04.319Z,5.17
2018-07-23T23:56:34.548Z,5.60
2018-07-23T23:59:05.136Z,5.77
